Time;durP1;ratioP1;P1;durP2;ratioP2;P2;SDS_P1;SDS_P2;PMS_P1;PMS_P2;Temp;Humidity;BMP_temperature;BMP_pressure;BME280_temperature;BME280_humidity;BME280_pressure;Samples;Min_cycle;Max_cycle;Signal;HPM_P1;HPM_P2
2021/12/13 00:01:19;;;;;;;66.97;20.98;;;10.10;99.90;;;;;;5057721;28;20351;-64
2021/12/13 00:03:59;;;;;;;73.40;21.27;;;10.10;99.90;;;;;;5040058;28;20068;-66
2021/12/13 00:06:33;;;;;;;67.65;21.40;;;10.10;99.90;;;;;;5057177;28;20385;-65
2021/12/13 00:09:03;;;;;;;119.30;25.25;;;10.10;99.90;;;;;;5056812;28;20037;-65
2021/12/13 00:11:32;;;;;;;71.13;21.35;;;10.10;99.90;;;;;;5023783;28;20068;-65
2021/12/13 00:14:10;;;;;;;69.55;21.55;;;10.10;99.90;;;;;;5056629;28;20121;-64
2021/12/13 00:16:41;;;;;;;79.82;22.67;;;10.10;99.90;;;;;;5057055;28;20071;-64
2021/12/13 00:19:10;;;;;;;107.65;24.52;;;10.10;99.90;;;;;;5039353;28;20182;-64
2021/12/13 00:21:44;;;;;;;72.13;21.67;;;10.10;99.90;;;;;;5056970;28;20060;-65
2021/12/13 00:24:26;;;;;;;55.88;21.73;;;10.10;99.90;;;;;;5039576;28;20075;-64
2021/12/13 00:27:13;;;;;;;78.95;23.42;;;10.10;99.90;;;;;;5039254;28;20064;-63
2021/12/13 00:29:56;;;;;;;89.78;24.63;;;10.10;99.90;;;;;;5051061;28;20041;-64
2021/12/13 00:32:46;;;;;;;70.97;22.70;;;10.10;99.90;;;;;;5056505;28;20041;-66
2021/12/13 00:35:20;;;;;;;73.70;22.75;;;10.10;99.90;;;;;;5056751;28;20044;-64
2021/12/13 00:37:51;;;;;;;66.18;22.70;;;10.10;99.90;;;;;;5055670;28;20048;-65
2021/12/13 00:40:22;;;;;;;73.47;23.85;;;10.10;99.90;;;;;;5055222;28;20060;-64
2021/12/13 00:42:56;;;;;;;79.63;25.55;;;10.10;99.90;;;;;;5055165;28;20153;-65
2021/12/13 00:45:29;;;;;;;101.00;26.40;;;10.10;99.90;;;;;;5056154;28;20049;-65
2021/12/13 00:47:56;;;;;;;83.18;24.27;;;10.10;99.90;;;;;;5056037;28;20063;-65
2021/12/13 00:50:44;;;;;;;69.50;23.58;;;10.10;99.90;;;;;;5055419;28;20036;-64
2021/12/13 00:53:15;;;;;;;82.38;26.02;;;10.10;99.90;;;;;;5056033;28;20060;-63
2021/12/13 00:55:43;;;;;;;115.97;28.35;;;10.10;99.90;;;;;;5055199;28;20040;-64
2021/12/13 00:58:21;;;;;;;102.72;27.15;;;10.10;99.90;;;;;;5061829;28;20349;-64
2021/12/13 01:00:53;;;;;;;106.07;27.45;;;10.10;99.90;;;;;;5076060;28;20056;-64
2021/12/13 01:03:25;;;;;;;90.10;26.08;;;10.10;99.90;;;;;;5057933;28;20449;-66
2021/12/13 01:06:27;;;;;;;124.40;29.15;;;10.10;99.90;;;;;;5059680;28;20454;-65
2021/12/13 01:09:38;;;;;;;119.90;29.25;;;10.10;99.90;;;;;;5038161;28;20049;-64
2021/12/13 01:12:09;;;;;;;159.25;31.48;;;10.10;99.90;;;;;;5055644;28;20115;-65
2021/12/13 01:14:59;;;;;;;137.43;31.38;;;10.10;99.90;;;;;;5038112;28;20060;-65
2021/12/13 01:20:33;;;;;;;184.30;35.88;;;10.10;99.90;;;;;;5032135;28;20091;-65
2021/12/13 01:23:07;;;;;;;181.88;35.03;;;10.10;99.90;;;;;;5055702;28;20049;-64
2021/12/13 01:25:46;;;;;;;162.32;34.60;;;10.10;99.90;;;;;;5055443;28;20441;-64
2021/12/13 01:28:20;;;;;;;175.32;35.60;;;10.10;99.90;;;;;;5055712;28;20090;-65
2021/12/13 01:30:51;;;;;;;164.40;33.28;;;10.10;99.90;;;;;;5055321;28;20053;-65
2021/12/13 01:33:18;;;;;;;165.75;35.65;;;10.10;99.90;;;;;;5055179;28;20449;-62
2021/12/13 01:35:48;;;;;;;167.00;34.33;;;10.10;99.90;;;;;;5021987;28;20060;-65
2021/12/13 01:38:32;;;;;;;140.35;34.00;;;10.10;99.90;;;;;;5037857;28;20049;-66
2021/12/13 01:41:00;;;;;;;214.27;38.08;;;10.10;99.90;;;;;;5055420;28;20040;-64
2021/12/13 01:43:31;;;;;;;169.45;32.70;;;10.10;99.90;;;;;;5055290;28;20049;-63
2021/12/13 01:45:59;;;;;;;177.02;33.20;;;10.20;99.90;;;;;;5037741;28;20473;-65
2021/12/13 01:48:33;;;;;;;181.77;33.55;;;10.20;99.90;;;;;;5055351;28;20060;-64
2021/12/13 01:51:07;;;;;;;;;;;10.10;99.90;;;;;;5020778;28;20049;-66
2021/12/13 01:54:02;;;;;;;147.95;29.88;;;10.10;99.90;;;;;;5037365;28;19924;-65
2021/12/13 01:56:47;;;;;;;129.13;27.88;;;10.10;99.90;;;;;;5055114;28;20114;-63
2021/12/13 02:02:25;;;;;;;109.63;25.83;;;10.10;99.90;;;;;;5074654;28;20515;-64
2021/12/13 02:05:00;;;;;;;96.25;26.73;;;10.10;99.90;;;;;;5065008;28;20056;-64
2021/12/13 02:07:29;;;;;;;109.10;26.10;;;10.10;99.90;;;;;;5077701;28;20135;-64
2021/12/13 02:09:57;;;;;;;148.50;28.50;;;10.10;99.90;;;;;;5095442;28;20330;-63
2021/12/13 02:12:28;;;;;;;103.90;27.58;;;10.10;99.90;;;;;;5095883;28;20056;-64
2021/12/13 02:17:46;;;;;;;69.32;22.33;;;10.10;99.90;;;;;;5095390;28;20109;-63
2021/12/13 02:20:23;;;;;;;64.27;22.57;;;10.10;99.90;;;;;;5095090;28;20379;-64
2021/12/13 02:22:54;;;;;;;94.40;25.52;;;10.10;99.90;;;;;;5077607;28;20414;-65
2021/12/13 02:25:19;;;;;;;66.00;23.48;;;10.10;99.90;;;;;;5077258;28;20044;-66
2021/12/13 02:27:52;;;;;;;65.75;23.25;;;10.10;99.90;;;;;;5071935;28;20475;-64
2021/12/13 02:30:36;;;;;;;63.00;23.38;;;10.10;99.90;;;;;;5075825;28;20174;-63
2021/12/13 02:33:05;;;;;;;55.20;23.13;;;10.10;99.90;;;;;;5074633;28;20055;-65
2021/12/13 02:35:34;;;;;;;64.28;24.42;;;10.10;99.90;;;;;;5056980;28;20067;-64
2021/12/13 02:38:02;;;;;;;67.63;25.98;;;10.10;99.90;;;;;;5074762;28;20045;-64
2021/12/13 02:40:28;;;;;;;60.45;25.92;;;10.10;99.90;;;;;;5057178;28;20056;-64
2021/12/13 02:42:54;;;;;;;54.40;25.90;;;10.10;99.90;;;;;;5057017;28;20373;-65
2021/12/13 02:45:44;;;;;;;74.60;29.13;;;10.10;99.90;;;;;;5057219;28;20066;-65
2021/12/13 02:48:18;;;;;;;60.67;27.08;;;10.10;99.90;;;;;;5057603;28;20076;-65
2021/12/13 02:50:51;;;;;;;78.30;28.27;;;10.10;99.90;;;;;;5056613;28;20041;-65
2021/12/13 02:53:22;;;;;;;78.35;30.10;;;10.10;99.90;;;;;;5057320;28;20088;-65
2021/12/13 02:55:48;;;;;;;66.53;28.77;;;10.10;99.90;;;;;;5074657;28;20461;-66
2021/12/13 02:58:17;;;;;;;76.70;30.10;;;10.10;99.90;;;;;;5085171;28;20054;-66
2021/12/13 03:00:57;;;;;;;76.00;29.38;;;10.10;99.90;;;;;;5077077;28;20117;-63
2021/12/13 03:03:26;;;;;;;71.35;27.88;;;10.10;99.90;;;;;;5077521;28;20052;-65
2021/12/13 03:05:54;;;;;;;75.40;28.58;;;10.10;99.90;;;;;;5080933;28;20061;-65
2021/12/13 03:08:25;;;;;;;81.50;29.92;;;10.10;99.90;;;;;;5060508;28;20072;-66
2021/12/13 03:11:01;;;;;;;85.50;28.45;;;10.10;99.90;;;;;;5077965;28;20044;-65
2021/12/13 03:13:30;;;;;;;66.38;27.27;;;10.10;99.90;;;;;;5078050;28;20173;-65
2021/12/13 03:16:28;;;;;;;68.25;26.77;;;10.10;99.90;;;;;;5060405;28;20073;-63
2021/12/13 03:19:04;;;;;;;60.42;23.75;;;10.00;99.90;;;;;;4975221;28;20064;-65
2021/12/13 03:22:07;;;;;;;62.33;24.55;;;10.00;99.90;;;;;;5060062;28;20114;-64
2021/12/13 03:24:35;;;;;;;58.00;22.48;;;10.00;99.90;;;;;;5078109;28;20044;-63
2021/12/13 03:27:07;;;;;;;64.82;22.10;;;10.00;99.90;;;;;;5077244;28;20055;-64
2021/12/13 03:29:53;;;;;;;64.43;23.00;;;10.00;99.90;;;;;;5058143;28;20372;-63
2021/12/13 03:32:21;;;;;;;59.92;23.25;;;9.90;99.90;;;;;;5057506;28;20059;-64
2021/12/13 03:35:07;;;;;;;60.25;22.30;;;9.90;99.90;;;;;;5057755;28;20052;-64
2021/12/13 03:37:33;;;;;;;68.97;21.48;;;9.90;99.90;;;;;;5040195;28;20061;-64
2021/12/13 03:40:04;;;;;;;54.88;20.08;;;9.90;99.90;;;;;;5040159;28;20128;-65
2021/12/13 03:42:54;;;;;;;50.08;19.90;;;9.90;99.90;;;;;;5057426;28;20044;-64
2021/12/13 03:45:28;;;;;;;62.88;20.40;;;10.00;99.90;;;;;;5057243;28;20071;-64
2021/12/13 03:47:56;;;;;;;48.55;17.98;;;9.90;99.90;;;;;;5040103;28;20052;-64
2021/12/13 03:50:42;;;;;;;66.38;19.92;;;9.90;99.90;;;;;;5039782;28;20124;-65
2021/12/13 03:53:14;;;;;;;42.65;16.95;;;9.80;99.90;;;;;;5039789;28;20049;-64
2021/12/13 03:55:41;;;;;;;53.95;16.90;;;9.90;99.90;;;;;;5039646;28;20075;-64
2021/12/13 03:58:11;;;;;;;46.22;17.38;;;9.80;99.90;;;;;;5051027;28;20060;-64
2021/12/13 04:00:48;;;;;;;49.97;16.42;;;9.80;99.90;;;;;;5077089;28;20045;-65
2021/12/13 04:03:16;;;;;;;51.03;16.77;;;9.80;99.90;;;;;;5077514;28;20041;-65
2021/12/13 04:05:43;;;;;;;45.08;16.17;;;9.80;99.90;;;;;;5058437;28;20063;-65
2021/12/13 04:08:12;;;;;;;30.42;14.85;;;9.80;99.90;;;;;;5079790;28;20060;-65
2021/12/13 04:10:48;;;;;;;35.83;14.55;;;9.70;99.90;;;;;;5079573;28;20058;-65
2021/12/13 04:13:16;;;;;;;35.92;15.20;;;9.70;99.90;;;;;;5097127;28;20048;-65
2021/12/13 04:16:15;;;;;;;39.35;15.27;;;9.70;99.90;;;;;;5062130;28;20043;-65
2021/12/13 04:21:50;;;;;;;30.88;12.90;;;9.70;99.90;;;;;;5079035;28;20059;-65
2021/12/13 04:24:20;;;;;;;32.10;12.82;;;9.70;99.90;;;;;;5096877;28;20040;-64
2021/12/13 04:26:52;;;;;;;41.35;12.57;;;9.70;99.90;;;;;;5077932;28;20441;-63
2021/12/13 04:29:26;;;;;;;32.08;12.10;;;9.70;99.90;;;;;;5076609;28;20048;-63
2021/12/13 04:31:53;;;;;;;21.85;10.30;;;9.60;99.90;;;;;;5076402;28;20041;-63
2021/12/13 04:34:23;;;;;;;24.73;9.75;;;9.60;99.90;;;;;;5076963;28;20428;-65
2021/12/13 04:36:51;;;;;;;22.25;9.55;;;9.50;99.90;;;;;;5059308;28;20059;-65
2021/12/13 04:39:32;;;;;;;26.65;10.02;;;9.50;99.90;;;;;;5059354;28;20232;-65
2021/12/13 04:42:01;;;;;;;26.20;10.45;;;9.40;99.90;;;;;;5076642;28;20086;-65
2021/12/13 04:44:31;;;;;;;35.40;10.88;;;9.40;99.90;;;;;;5058186;28;20041;-66
2021/12/13 04:47:07;;;;;;;22.55;9.30;;;9.40;99.90;;;;;;5076441;28;20488;-64
2021/12/13 04:49:35;;;;;;;27.40;10.43;;;9.40;99.90;;;;;;5058330;28;20055;-64
2021/12/13 04:52:06;;;;;;;24.60;10.10;;;9.40;99.90;;;;;;5076548;28;20076;-63
2021/12/13 04:54:35;;;;;;;29.95;10.43;;;9.40;99.90;;;;;;5058485;28;20049;-66
2021/12/13 04:57:02;;;;;;;27.63;11.02;;;9.40;99.90;;;;;;5062692;28;20113;-64
2021/12/13 04:59:29;;;;;;;29.17;11.23;;;9.30;99.90;;;;;;5079196;28;20048;-65
2021/12/13 05:01:58;;;;;;;29.65;10.25;;;9.30;99.90;;;;;;5096358;28;20052;-64
2021/12/13 05:04:25;;;;;;;31.25;9.95;;;9.20;99.90;;;;;;5091905;28;20060;-63
2021/12/13 05:06:52;;;;;;;32.47;11.40;;;9.10;99.90;;;;;;5058194;28;20059;-64
2021/12/13 05:09:20;;;;;;;27.75;11.13;;;9.10;99.90;;;;;;5058435;28;20062;-65
2021/12/13 05:11:48;;;;;;;30.92;10.75;;;9.10;99.90;;;;;;5057926;28;20048;-64
2021/12/13 05:14:15;;;;;;;28.15;12.00;;;9.10;99.90;;;;;;5076097;28;20041;-65
2021/12/13 05:16:51;;;;;;;27.63;11.90;;;9.20;99.90;;;;;;5064151;28;20045;-64
2021/12/13 05:19:37;;;;;;;33.88;12.57;;;9.20;99.90;;;;;;5055752;28;20045;-65
2021/12/13 05:22:06;;;;;;;28.90;12.68;;;9.20;99.90;;;;;;5038778;28;20044;-65
2021/12/13 05:24:40;;;;;;;32.58;13.02;;;9.20;99.90;;;;;;5043819;28;20780;-64
2021/12/13 05:27:09;;;;;;;37.08;14.80;;;9.20;99.90;;;;;;5054612;28;20055;-63
2021/12/13 05:29:42;;;;;;;36.75;15.45;;;9.20;99.90;;;;;;5055348;28;20105;-65
2021/12/13 05:32:18;;;;;;;28.30;12.68;;;9.20;99.90;;;;;;5038236;28;20064;-63
2021/12/13 05:34:50;;;;;;;35.72;13.85;;;9.20;99.90;;;;;;5061843;28;20053;-64
2021/12/13 05:37:17;;;;;;;34.08;13.68;;;9.20;99.90;;;;;;5065587;28;20094;-65
2021/12/13 05:40:07;;;;;;;35.75;13.57;;;9.30;99.90;;;;;;5044419;28;20051;-63
2021/12/13 05:42:43;;;;;;;34.45;13.95;;;9.20;99.90;;;;;;5047443;28;20048;-66
2021/12/13 05:45:15;;;;;;;32.92;13.20;;;9.20;99.90;;;;;;5048694;28;20048;-64
2021/12/13 05:47:54;;;;;;;38.70;15.45;;;9.20;99.90;;;;;;5051656;28;20453;-66
2021/12/13 05:50:40;;;;;;;32.13;14.40;;;9.20;99.90;;;;;;5062587;28;20044;-65
2021/12/13 05:53:14;;;;;;;29.02;13.30;;;9.20;99.90;;;;;;5067151;28;20084;-66
2021/12/13 05:55:55;;;;;;;36.20;13.50;;;9.20;99.90;;;;;;5060298;28;20116;-65
2021/12/13 05:58:30;;;;;;;39.42;14.85;;;9.20;99.90;;;;;;5074425;28;20052;-63
2021/12/13 06:00:59;;;;;;;30.98;13.20;;;9.20;99.90;;;;;;5051322;28;20123;-65
2021/12/13 06:03:32;;;;;;;33.55;15.35;;;9.20;99.90;;;;;;5054534;28;20049;-63
2021/12/13 06:06:18;;;;;;;30.33;13.80;;;9.10;99.90;;;;;;5051981;28;20572;-65
2021/12/13 06:08:50;;;;;;;29.58;13.57;;;9.20;99.90;;;;;;5046499;28;20410;-66
2021/12/13 06:11:19;;;;;;;30.92;14.35;;;9.10;99.90;;;;;;5062998;28;20445;-64
2021/12/13 06:13:50;;;;;;;32.97;13.90;;;9.20;99.90;;;;;;5061145;28;20060;-65
2021/12/13 06:16:36;;;;;;;34.22;14.52;;;9.10;99.90;;;;;;5055228;28;20067;-65
2021/12/13 06:19:21;;;;;;;27.83;13.45;;;9.10;99.90;;;;;;5053502;28;20044;-63
2021/12/13 06:22:01;;;;;;;25.83;12.02;;;9.10;99.90;;;;;;5042230;28;20040;-65
2021/12/13 06:24:34;;;;;;;32.38;13.90;;;9.20;99.90;;;;;;5059503;28;20059;-66
2021/12/13 06:27:10;;;;;;;27.17;13.57;;;9.20;99.90;;;;;;5059138;28;20429;-64
2021/12/13 06:30:13;;;;;;;27.65;13.43;;;9.10;99.90;;;;;;5066709;28;20051;-64
2021/12/13 06:32:53;;;;;;;25.70;12.70;;;9.10;99.90;;;;;;5069091;28;20124;-64
2021/12/13 06:35:41;;;;;;;32.28;14.20;;;9.20;99.90;;;;;;5036357;28;20109;-64
2021/12/13 06:38:18;;;;;;;35.83;14.45;;;9.10;99.90;;;;;;5048511;28;20045;-64
2021/12/13 06:40:53;;;;;;;28.95;13.90;;;9.10;99.90;;;;;;5071235;28;20057;-64
2021/12/13 06:43:28;;;;;;;28.63;14.02;;;9.10;99.90;;;;;;5057748;28;20073;-65
2021/12/13 06:45:53;;;;;;;32.33;13.50;;;9.10;99.90;;;;;;5049752;28;20062;-66
2021/12/13 06:48:36;;;;;;;33.38;14.02;;;9.20;99.90;;;;;;5059346;28;20457;-64
2021/12/13 06:51:04;;;;;;;30.10;14.30;;;9.10;99.90;;;;;;5077458;28;20044;-65
2021/12/13 06:53:29;;;;;;;34.33;13.70;;;9.10;99.90;;;;;;5057966;28;20127;-64
2021/12/13 06:55:56;;;;;;;29.50;13.02;;;9.10;99.90;;;;;;5059192;28;20489;-64
2021/12/13 06:58:28;;;;;;;28.85;13.88;;;9.10;99.90;;;;;;5059649;28;20059;-64
2021/12/13 07:01:05;;;;;;;29.90;14.45;;;9.10;99.90;;;;;;5045722;28;20044;-65
2021/12/13 07:03:34;;;;;;;34.88;14.90;;;9.10;99.90;;;;;;5059198;28;20049;-64
2021/12/13 07:06:03;;;;;;;30.55;14.63;;;9.10;99.90;;;;;;5077270;28;20523;-65
2021/12/13 07:08:36;;;;;;;28.45;13.98;;;9.10;99.90;;;;;;5077523;28;20147;-64
2021/12/13 07:11:07;;;;;;;37.95;16.10;;;9.10;99.90;;;;;;5065474;28;20100;-64
2021/12/13 07:14:01;;;;;;;28.45;14.43;;;9.10;99.90;;;;;;5073343;28;20132;-66
2021/12/13 07:16:34;;;;;;;35.03;15.85;;;9.10;99.90;;;;;;5064056;28;20068;-64
2021/12/13 07:19:35;;;;;;;31.33;15.40;;;9.10;99.90;;;;;;5061988;28;20067;-66
2021/12/13 07:22:04;;;;;;;34.60;16.05;;;9.10;99.90;;;;;;5025290;28;20315;-65
2021/12/13 07:24:40;;;;;;;32.85;15.45;;;9.00;99.90;;;;;;5082665;28;20119;-66
2021/12/13 07:27:13;;;;;;;28.73;15.10;;;9.10;99.90;;;;;;5062347;28;20057;-64
2021/12/13 07:30:16;;;;;;;36.03;16.75;;;9.00;99.90;;;;;;5065092;28;20109;-65
2021/12/13 07:33:00;;;;;;;36.83;17.15;;;9.10;99.90;;;;;;5054308;28;20056;-64
2021/12/13 07:35:30;;;;;;;33.92;17.52;;;9.00;99.90;;;;;;5076331;28;20048;-65
2021/12/13 07:38:11;;;;;;;39.45;17.30;;;9.00;99.90;;;;;;5059025;28;20136;-65
2021/12/13 07:40:42;;;;;;;34.58;17.35;;;9.00;99.90;;;;;;5083495;28;20055;-64
2021/12/13 07:43:22;;;;;;;35.63;18.00;;;9.00;99.90;;;;;;5078241;28;20127;-65
2021/12/13 07:46:10;;;;;;;36.17;19.92;;;9.00;99.90;;;;;;5095824;28;20044;-64
2021/12/13 07:48:51;;;;;;;37.45;19.48;;;9.10;99.90;;;;;;5095563;28;20102;-65
2021/12/13 07:51:25;;;;;;;41.00;20.27;;;9.10;99.90;;;;;;5078457;28;20059;-63
2021/12/13 07:53:56;;;;;;;44.45;21.42;;;9.10;99.90;;;;;;5083083;28;20083;-64
2021/12/13 07:56:28;;;;;;;40.08;20.55;;;9.10;99.90;;;;;;5041827;28;20088;-65
2021/12/13 07:59:29;;;;;;;42.28;21.13;;;9.10;99.90;;;;;;5066426;28;20492;-63
2021/12/13 08:02:10;;;;;;;40.45;21.17;;;9.10;99.90;;;;;;5064322;28;20135;-65
2021/12/13 08:04:41;;;;;;;46.47;23.05;;;9.10;99.90;;;;;;5057944;28;20067;-63
2021/12/13 08:07:17;;;;;;;44.10;22.75;;;9.10;99.90;;;;;;5058369;28;20350;-64
2021/12/13 08:09:46;;;;;;;48.63;22.60;;;9.10;99.90;;;;;;5058176;28;20417;-64
2021/12/13 08:12:42;;;;;;;44.40;23.52;;;9.10;99.90;;;;;;5077386;28;20052;-64
2021/12/13 08:15:16;;;;;;;41.50;22.77;;;9.10;99.90;;;;;;5056400;28;20064;-65
2021/12/13 08:17:49;;;;;;;;;;;9.10;99.90;;;;;;5058664;28;20044;-64
2021/12/13 08:20:42;;;;;;;49.13;24.67;;;9.10;99.90;;;;;;5075379;28;19950;-64
2021/12/13 08:23:19;;;;;;;48.27;25.00;;;9.10;99.90;;;;;;5057475;28;20074;-63
2021/12/13 08:25:48;;;;;;;46.17;23.70;;;9.10;99.90;;;;;;5057651;28;20763;-65
2021/12/13 08:28:17;;;;;;;56.58;26.60;;;9.10;99.90;;;;;;5057728;28;20049;-64
2021/12/13 08:30:47;;;;;;;53.00;26.15;;;9.10;99.90;;;;;;5087587;28;20461;-67
2021/12/13 08:33:37;;;;;;;49.83;24.95;;;9.10;99.90;;;;;;5057898;28;20066;-64
2021/12/13 08:36:13;;;;;;;51.85;26.58;;;9.10;99.90;;;;;;5074942;28;20045;-65
2021/12/13 08:39:11;;;;;;;47.50;26.02;;;9.10;99.90;;;;;;5089950;28;20044;-66
2021/12/13 08:41:44;;;;;;;47.60;26.55;;;9.20;99.90;;;;;;5079697;28;20051;-65
2021/12/13 08:44:09;;;;;;;45.70;28.10;;;9.10;99.90;;;;;;5074921;28;20404;-65
2021/12/13 08:46:56;;;;;;;48.47;26.35;;;9.20;99.90;;;;;;5057434;28;20163;-66
2021/12/13 08:49:43;;;;;;;58.67;28.98;;;9.20;99.90;;;;;;5057944;28;20564;-65
2021/12/13 08:52:22;;;;;;;48.17;27.70;;;9.20;99.90;;;;;;5075416;28;20062;-65
2021/12/13 08:55:02;;;;;;;51.20;28.33;;;9.20;99.90;;;;;;5075331;28;20045;-64
2021/12/13 08:57:41;;;;;;;55.22;28.92;;;9.20;99.90;;;;;;5075353;28;20076;-65
2021/12/13 09:00:13;;;;;;;46.65;28.20;;;9.20;99.90;;;;;;5075293;28;20048;-63
2021/12/13 09:02:44;;;;;;;54.10;28.80;;;9.20;99.90;;;;;;5087131;28;20690;-65
2021/12/13 09:05:20;;;;;;;52.42;29.45;;;9.30;99.90;;;;;;5046360;28;20481;-64
2021/12/13 09:08:10;;;;;;;54.85;29.33;;;9.30;99.90;;;;;;5046436;28;20047;-64
2021/12/13 09:10:39;;;;;;;54.47;29.40;;;9.30;99.90;;;;;;5049327;28;20055;-65
2021/12/13 09:13:05;;;;;;;50.97;27.98;;;9.30;99.90;;;;;;5074477;28;20346;-64
2021/12/13 09:15:34;;;;;;;59.13;30.50;;;9.30;99.90;;;;;;5057111;28;20060;-64
2021/12/13 09:18:00;;;;;;;50.30;29.73;;;9.30;99.90;;;;;;5073927;28;20044;-65
2021/12/13 09:20:37;;;;;;;60.45;30.85;;;9.30;99.90;;;;;;5074552;28;20456;-64
2021/12/13 09:23:11;;;;;;;50.60;29.38;;;9.30;99.90;;;;;;5052142;28;20048;-63
2021/12/13 09:25:46;;;;;;;56.47;29.60;;;9.40;99.90;;;;;;5043411;28;20083;-64
2021/12/13 09:28:49;;;;;;;58.25;29.45;;;9.40;99.90;;;;;;5053121;28;20051;-64
2021/12/13 09:31:23;;;;;;;50.75;30.05;;;9.40;99.90;;;;;;5046688;28;20068;-65
2021/12/13 09:33:53;;;;;;;48.90;29.80;;;9.50;99.90;;;;;;5055639;28;20041;-64
2021/12/13 09:36:23;;;;;;;53.67;29.48;;;9.50;99.90;;;;;;5054698;28;20045;-65
2021/12/13 09:39:02;;;;;;;49.20;29.65;;;9.50;99.90;;;;;;5068218;28;20072;-64
2021/12/13 09:41:38;;;;;;;51.00;28.85;;;9.50;99.90;;;;;;5037303;28;20060;-64
2021/12/13 09:44:16;;;;;;;45.85;28.02;;;9.60;99.90;;;;;;5047398;28;20059;-63
2021/12/13 09:46:52;;;;;;;50.25;28.25;;;9.70;99.90;;;;;;5056288;28;20056;-64
2021/12/13 09:49:23;;;;;;;44.58;26.67;;;9.70;99.90;;;;;;5056320;28;20045;-63
2021/12/13 09:52:11;;;;;;;44.30;27.40;;;9.70;99.90;;;;;;5057262;28;20484;-64
2021/12/13 09:54:56;;;;;;;45.90;26.90;;;9.70;99.90;;;;;;5054246;28;20124;-64
2021/12/13 09:57:28;;;;;;;43.15;26.10;;;9.70;99.90;;;;;;5037117;28;20127;-64
2021/12/13 09:59:56;;;;;;;37.38;25.45;;;9.70;99.90;;;;;;5054341;28;20072;-64
2021/12/13 10:02:30;;;;;;;38.17;25.80;;;9.70;99.90;;;;;;5037113;28;20072;-65
2021/12/13 10:04:56;;;;;;;35.45;24.48;;;9.70;99.90;;;;;;5054231;28;20432;-66
2021/12/13 10:07:29;;;;;;;41.05;25.40;;;9.70;99.90;;;;;;5045263;28;20116;-63
2021/12/13 10:10:28;;;;;;;41.45;25.42;;;9.80;99.90;;;;;;5054467;28;20048;-63
2021/12/13 10:12:58;;;;;;;39.25;24.70;;;9.70;99.90;;;;;;5035028;28;20056;-65
2021/12/13 10:15:31;;;;;;;36.20;23.20;;;9.80;99.90;;;;;;5065516;28;20068;-66
2021/12/13 10:18:03;;;;;;;36.90;22.45;;;9.80;99.90;;;;;;5056310;28;20041;-65
2021/12/13 10:21:06;;;;;;;32.78;22.13;;;9.80;99.90;;;;;;5055362;28;20053;-64
2021/12/13 10:23:36;;;;;;;42.00;23.88;;;9.80;99.90;;;;;;5033568;28;20061;-64
2021/12/13 10:26:06;;;;;;;33.28;23.48;;;9.80;99.90;;;;;;5057485;28;20045;-64
2021/12/13 10:28:37;;;;;;;37.95;22.15;;;9.90;99.90;;;;;;5045789;28;20450;-64
2021/12/13 10:31:18;;;;;;;32.20;21.38;;;9.80;99.90;;;;;;5062156;28;20103;-65
2021/12/13 10:33:46;;;;;;;44.35;22.42;;;9.80;99.90;;;;;;5072873;28;20075;-65
2021/12/13 10:36:14;;;;;;;34.20;21.30;;;9.80;99.90;;;;;;5073917;28;20148;-66
2021/12/13 10:38:45;;;;;;;32.15;21.15;;;9.80;99.90;;;;;;5073452;28;20048;-64
2021/12/13 10:41:18;;;;;;;33.33;21.25;;;9.80;99.90;;;;;;5055839;28;20056;-66
2021/12/13 10:43:48;;;;;;;;;;;9.80;99.90;;;;;;5056323;28;20052;-65
2021/12/13 10:46:21;;;;;;;27.52;19.55;;;9.80;99.90;;;;;;5056307;28;19921;-64
2021/12/13 10:48:51;;;;;;;33.22;20.02;;;9.80;99.90;;;;;;5058398;28;20080;-64
2021/12/13 10:51:23;;;;;;;30.15;19.70;;;9.90;99.90;;;;;;5054063;28;20106;-65
2021/12/13 10:53:52;;;;;;;36.40;19.95;;;9.90;99.90;;;;;;5036593;28;20053;-65
2021/12/13 10:56:28;;;;;;;30.63;19.88;;;10.00;99.90;;;;;;5054352;28;20334;-64
2021/12/13 10:58:59;;;;;;;29.83;19.88;;;10.00;99.90;;;;;;5053835;28;20401;-66
2021/12/13 11:01:31;;;;;;;34.53;21.13;;;10.10;99.90;;;;;;5036410;28;20045;-66
2021/12/13 11:04:00;;;;;;;26.85;18.65;;;10.10;99.90;;;;;;5070471;28;20113;-63
2021/12/13 11:06:26;;;;;;;28.77;18.77;;;10.10;99.90;;;;;;5055145;28;20135;-65
2021/12/13 11:08:52;;;;;;;27.60;18.60;;;10.20;99.90;;;;;;5053912;28;20477;-64
2021/12/13 11:11:27;;;;;;;28.38;18.30;;;10.20;99.90;;;;;;5036176;28;20051;-65
2021/12/13 11:13:57;;;;;;;26.23;18.63;;;10.20;99.90;;;;;;5060879;28;20048;-64
2021/12/13 11:16:30;;;;;;;29.10;18.40;;;10.20;99.90;;;;;;5066887;28;20056;-65
2021/12/13 11:18:58;;;;;;;;;;;10.20;99.90;;;;;;5071563;28;20338;-63
2021/12/13 11:21:28;;;;;;;28.08;18.10;;;10.30;99.90;;;;;;5043875;28;20000;-64
2021/12/13 11:23:56;;;;;;;32.92;18.08;;;10.30;99.90;;;;;;5073164;28;20233;-63
2021/12/13 11:26:33;;;;;;;31.35;19.70;;;10.30;99.90;;;;;;5042630;28;20053;-64
2021/12/13 11:29:00;;;;;;;22.58;16.73;;;10.30;99.90;;;;;;5052438;28;20465;-63
2021/12/13 11:31:28;;;;;;;28.08;18.15;;;10.30;99.90;;;;;;5070480;28;20045;-64
2021/12/13 11:34:01;;;;;;;27.40;18.33;;;10.30;99.90;;;;;;5056047;28;20488;-65
2021/12/13 11:36:48;;;;;;;29.60;18.73;;;10.30;99.90;;;;;;5040683;28;20120;-65
2021/12/13 11:39:58;;;;;;;28.20;17.85;;;10.30;99.90;;;;;;5052224;28;20045;-65
2021/12/13 11:43:04;;;;;;;30.95;18.00;;;10.40;99.90;;;;;;5062578;28;20408;-65
2021/12/13 11:45:48;;;;;;;29.50;17.85;;;10.40;99.90;;;;;;5005674;28;20061;-65
2021/12/13 11:48:52;;;;;;;29.45;17.75;;;10.40;99.90;;;;;;5052539;28;20118;-63
2021/12/13 11:51:37;;;;;;;25.95;16.13;;;10.40;99.90;;;;;;5048425;28;20040;-64
2021/12/13 11:54:21;;;;;;;25.85;17.45;;;10.50;99.90;;;;;;5057902;28;20376;-64
2021/12/13 11:57:24;;;;;;;24.48;17.00;;;10.50;99.90;;;;;;5066314;28;20096;-65
2021/12/13 12:00:18;;;;;;;25.02;16.75;;;10.50;99.90;;;;;;5051718;28;20114;-65
2021/12/13 12:03:08;;;;;;;31.40;18.13;;;10.60;99.90;;;;;;5071624;28;20090;-65
2021/12/13 12:06:08;;;;;;;30.25;17.17;;;10.50;99.90;;;;;;5057895;28;20419;-64
2021/12/13 12:09:05;;;;;;;27.08;17.13;;;10.50;99.90;;;;;;5038309;28;20057;-66
2021/12/13 12:11:49;;;;;;;24.83;16.38;;;10.60;99.90;;;;;;5056203;28;20041;-67
2021/12/13 12:14:16;;;;;;;26.17;16.90;;;10.60;99.90;;;;;;5038306;28;20485;-64
2021/12/13 12:16:47;;;;;;;25.77;16.38;;;10.60;99.90;;;;;;5058675;28;20127;-67
2021/12/13 12:19:27;;;;;;;28.35;17.05;;;10.60;99.90;;;;;;5066266;28;20366;-64
2021/12/13 12:22:04;;;;;;;29.08;17.73;;;10.60;99.90;;;;;;5042442;28;20049;-64
2021/12/13 12:24:35;;;;;;;27.77;16.40;;;10.60;99.90;;;;;;5065926;28;20056;-64
2021/12/13 12:27:05;;;;;;;25.10;16.10;;;10.70;99.90;;;;;;5046786;28;20053;-66
2021/12/13 12:29:35;;;;;;;27.27;17.02;;;10.70;99.90;;;;;;5074502;28;20123;-65
2021/12/13 12:32:14;;;;;;;25.65;16.00;;;10.80;99.90;;;;;;5076450;28;20045;-66
2021/12/13 12:35:11;;;;;;;26.05;17.20;;;10.80;99.90;;;;;;5076120;28;20066;-66
2021/12/13 12:37:56;;;;;;;30.98;16.40;;;10.80;99.90;;;;;;5057776;28;20063;-67
2021/12/13 12:40:59;;;;;;;28.35;16.48;;;10.80;99.90;;;;;;5054634;28;20242;-65
2021/12/13 12:43:30;;;;;;;26.42;16.50;;;10.80;99.90;;;;;;5055715;28;20057;-66
2021/12/13 12:46:00;;;;;;;24.63;16.40;;;10.80;99.90;;;;;;5055946;28;20415;-64
2021/12/13 12:48:32;;;;;;;23.90;16.80;;;10.80;99.90;;;;;;5068898;28;20342;-65
2021/12/13 12:51:05;;;;;;;29.15;16.77;;;10.70;99.90;;;;;;5068339;28;20049;-64
2021/12/13 12:53:45;;;;;;;26.90;18.17;;;10.80;99.90;;;;;;5055913;28;20366;-66
2021/12/13 12:56:16;;;;;;;29.73;17.80;;;10.70;99.90;;;;;;5055890;28;20303;-66
2021/12/13 12:59:08;;;;;;;30.33;17.88;;;10.70;99.90;;;;;;5038394;28;20052;-66
2021/12/13 13:01:48;;;;;;;31.45;19.27;;;10.70;99.90;;;;;;5063716;28;20079;-65
2021/12/13 13:04:21;;;;;;;32.70;18.40;;;10.70;99.90;;;;;;5037581;28;20442;-66
2021/12/13 13:07:07;;;;;;;29.40;19.52;;;10.60;99.90;;;;;;5054853;28;20122;-65
2021/12/13 13:09:53;;;;;;;30.10;18.50;;;10.70;99.90;;;;;;5040370;28;20091;-66
2021/12/13 13:12:27;;;;;;;36.33;19.35;;;10.50;99.90;;;;;;5037149;28;20076;-64
2021/12/13 13:15:12;;;;;;;36.92;20.58;;;10.50;99.90;;;;;;5057515;28;20056;-66
2021/12/13 13:17:41;;;;;;;35.58;20.77;;;10.40;99.90;;;;;;5074668;28;20045;-65
2021/12/13 13:20:23;;;;;;;36.35;20.58;;;10.40;99.90;;;;;;5074780;28;20059;-64
2021/12/13 13:22:50;;;;;;;33.20;19.58;;;10.30;99.90;;;;;;5056767;28;20396;-66
2021/12/13 13:25:16;;;;;;;35.33;20.83;;;10.40;99.90;;;;;;5074204;28;20526;-66
2021/12/13 13:27:43;;;;;;;43.72;22.77;;;10.30;99.90;;;;;;5057151;28;20056;-63
2021/12/13 13:30:20;;;;;;;43.03;22.23;;;10.30;99.90;;;;;;5057147;28;20040;-63